Time;durP1;ratioP1;P1;durP2;ratioP2;P2;SDS_P1;SDS_P2;PMS_P1;PMS_P2;Temp;Humidity;BMP_temperature;BMP_pressure;BME280_temperature;BME280_humidity;BME280_pressure;Samples;Min_cycle;Max_cycle;Signal;HPM_P1;HPM_P2
2022/05/11 00:01:25;;;;;;;;;;;;;;;;;;5118439;28;19920;-26
2022/05/11 00:03:51;;;;;;;;;;;;;;;;;;5117996;28;19930;-26
2022/05/11 00:06:17;;;;;;;;;;;;;;;;;;5100223;28;19908;-26
2022/05/11 00:08:44;;;;;;;;;;;;;;;;;;5118487;28;19920;-26
2022/05/11 00:11:10;;;;;;;;;;;;;;;;;;5118184;28;19999;-26
2022/05/11 00:13:36;;;;;;;;;;;;;;;;;;5118088;28;19999;-26
2022/05/11 00:16:02;;;;;;;;;;;;;;;;;;5118407;28;19951;-26
2022/05/11 00:18:28;;;;;;;;;;;;;;;;;;5100026;28;19923;-26
2022/05/11 00:20:54;;;;;;;;;;;;;;;;;;5118083;28;19912;-26
2022/05/11 00:23:19;;;;;;;;;;;;;;;;;;5117895;28;20382;-26
2022/05/11 00:25:46;;;;;;;;;;;;;;;;;;5118175;28;19961;-26
2022/05/11 00:28:12;;;;;;;;;;;;;;;;;;5117894;28;19938;-26
2022/05/11 00:30:38;;;;;;;;;;;;;;;;;;5118100;28;19949;-27
2022/05/11 00:33:04;;;;;;;;;;;;;;;;;;5117722;28;20011;-26
2022/05/11 00:35:30;;;;;;;;;;;;;;;;;;5117797;28;20361;-26
2022/05/11 00:37:56;;;;;;;;;;;;;;;;;;5117905;28;19920;-26
2022/05/11 00:40:22;;;;;;;;;;;;;;;;;;5117725;28;19908;-26
2022/05/11 00:42:48;;;;;;;;;;;;;;;;;;5117576;28;19911;-26
2022/05/11 00:45:14;;;;;;;;;;;;;;;;;;5117820;28;19911;-26
2022/05/11 00:47:40;;;;;;;;;;;;;;;;;;5117539;28;19912;-26
2022/05/11 00:50:06;;;;;;;;;;;;;;;;;;5117691;28;20243;-26
2022/05/11 00:52:33;;;;;;;;;;;;;;;;;;5117383;28;20326;-27
2022/05/11 00:55:00;;;;;;;;;;;;;;;;;;5117255;28;19922;-26
2022/05/11 00:57:26;;;;;;;;;;;;;;;;;;5116885;28;20426;-26
2022/05/11 00:59:52;;;;;;;;;;;;;;;;;;5117003;28;19913;-26
2022/05/11 01:02:18;;;;;;;;;;;;;;;;;;5117363;28;19912;-26
2022/05/11 01:04:44;;;;;;;;;;;;;;;;;;5117434;28;19931;-26
2022/05/11 01:07:10;;;;;;;;;;;;;;;;;;5117356;28;19912;-26
2022/05/11 01:09:36;;;;;;;;;;;;;;;;;;5117414;28;19911;-26
2022/05/11 01:12:02;;;;;;;;;;;;;;;;;;5116960;28;19911;-26
2022/05/11 01:14:28;;;;;;;;;;;;;;;;;;5117081;28;19908;-26
2022/05/11 01:16:54;;;;;;;;;;;;;;;;;;5117216;28;19911;-26
2022/05/11 01:19:20;;;;;;;;;;;;;;;;;;5098754;28;20303;-26
2022/05/11 01:21:46;;;;;;;;;;;;;;;;;;5117223;28;19919;-26
2022/05/11 01:24:12;;;;;;;;;;;;;;;;;;5116949;28;20238;-26
2022/05/11 01:26:38;;;;;;;;;;;;;;;;;;5116936;28;19912;-24
2022/05/11 01:29:04;;;;;;;;;;;;;;;;;;5116660;28;20239;-26
2022/05/11 01:31:30;;;;;;;;;;;;;;;;;;5116580;28;19968;-26
2022/05/11 01:33:56;;;;;;;;;;;;;;;;;;5116485;28;20243;-26
2022/05/11 01:36:22;;;;;;;;;;;;;;;;;;5116484;28;19912;-26
2022/05/11 01:38:48;;;;;;;;;;;;;;;;;;5116448;28;19912;-26
2022/05/11 01:41:15;;;;;;;;;;;;;;;;;;5116395;28;20014;-26
2022/05/11 01:43:41;;;;;;;;;;;;;;;;;;5116610;28;20072;-26
2022/05/11 01:46:07;;;;;;;;;;;;;;;;;;5098369;28;20337;-26
2022/05/11 01:48:33;;;;;;;;;;;;;;;;;;5116342;28;19998;-26
2022/05/11 01:50:59;;;;;;;;;;;;;;;;;;5116311;28;20002;-26
2022/05/11 01:53:25;;;;;;;;;;;;;;;;;;5098154;28;19912;-26
2022/05/11 01:55:51;;;;;;;;;;;;;;;;;;5116458;28;19908;-26
2022/05/11 01:58:18;;;;;;;;;;;;;;;;;;5116307;28;19968;-26
2022/05/11 02:00:44;;;;;;;;;;;;;;;;;;5116070;28;19912;-26
2022/05/11 02:03:10;;;;;;;;;;;;;;;;;;5115857;28;19932;-26
2022/05/11 02:08:20;;;;;;;;;;;;;;;;;;5116011;28;19973;-24
2022/05/11 02:10:47;;;;;;;;;;;;;;;;;;5115838;28;19916;-24
2022/05/11 02:13:13;;;;;;;;;;;;;;;;;;5115678;28;20264;-24
2022/05/11 02:15:40;;;;;;;;;;;;;;;;;;5116000;28;19961;-24
2022/05/11 02:18:06;;;;;;;;;;;;;;;;;;5116433;28;19916;-24
2022/05/11 02:20:32;;;;;;;;;;;;;;;;;;5115955;28;19911;-24
2022/05/11 02:22:58;;;;;;;;;;;;;;;;;;5115522;28;19915;-24
2022/05/11 02:25:24;;;;;;;;;;;;;;;;;;5115602;28;19916;-24
2022/05/11 02:27:50;;;;;;;;;;;;;;;;;;5115568;28;19911;-24
2022/05/11 02:30:16;;;;;;;;;;;;;;;;;;5115843;28;20342;-24
2022/05/11 02:32:42;;;;;;;;;;;;;;;;;;5115491;28;19912;-24
2022/05/11 02:35:17;;;;;;;;;;;;;;;;;;5115487;28;19918;-24
2022/05/11 02:37:43;;;;;;;;;;;;;;;;;;5115350;28;19919;-24
2022/05/11 02:40:09;;;;;;;;;;;;;;;;;;5115495;28;19908;-24
2022/05/11 02:42:35;;;;;;;;;;;;;;;;;;5115515;28;19964;-24
2022/05/11 02:45:01;;;;;;;;;;;;;;;;;;5115314;28;19992;-24
2022/05/11 02:47:27;;;;;;;;;;;;;;;;;;5097221;28;19965;-24
2022/05/11 02:49:54;;;;;;;;;;;;;;;;;;5115288;28;20357;-24
2022/05/11 02:52:20;;;;;;;;;;;;;;;;;;5115234;28;19969;-24
2022/05/11 02:54:48;;;;;;;;;;;;;;;;;;5097319;28;20345;-24
2022/05/11 02:57:14;;;;;;;;;;;;;;;;;;5115667;28;19955;-24
2022/05/11 02:59:40;;;;;;;;;;;;;;;;;;5115208;28;19938;-24
2022/05/11 03:02:06;;;;;;;;;;;;;;;;;;5115356;28;19912;-24
2022/05/11 03:04:32;;;;;;;;;;;;;;;;;;5115009;28;19975;-24
2022/05/11 03:06:58;;;;;;;;;;;;;;;;;;5115098;28;19998;-24
2022/05/11 03:09:24;;;;;;;;;;;;;;;;;;5115100;28;19912;-24
2022/05/11 03:11:50;;;;;;;;;;;;;;;;;;5115087;28;20270;-24
2022/05/11 03:14:16;;;;;;;;;;;;;;;;;;5115391;28;19918;-24
2022/05/11 03:16:43;;;;;;;;;;;;;;;;;;5115367;28;20010;-24
2022/05/11 03:19:09;;;;;;;;;;;;;;;;;;5114849;28;19912;-24
2022/05/11 03:21:35;;;;;;;;;;;;;;;;;;5116163;28;20401;-24
2022/05/11 03:24:01;;;;;;;;;;;;;;;;;;5118981;28;19958;-24
2022/05/11 03:26:27;;;;;;;;;;;;;;;;;;5118979;28;19915;-24
2022/05/11 03:28:53;;;;;;;;;;;;;;;;;;5118918;28;19915;-24
2022/05/11 03:31:19;;;;;;;;;;;;;;;;;;5118923;28;19926;-24
2022/05/11 03:36:30;;;;;;;;;;;;;;;;;;5119248;28;19918;-24
2022/05/11 03:38:56;;;;;;;;;;;;;;;;;;5118765;28;19915;-24
2022/05/11 03:41:21;;;;;;;;;;;;;;;;;;5118903;28;19912;-24
2022/05/11 03:43:48;;;;;;;;;;;;;;;;;;5118619;28;19912;-24
2022/05/11 03:46:14;;;;;;;;;;;;;;;;;;5118448;28;19916;-24
2022/05/11 03:48:40;;;;;;;;;;;;;;;;;;5118702;28;19907;-24
2022/05/11 03:51:06;;;;;;;;;;;;;;;;;;5118420;28;19919;-25
2022/05/11 03:53:32;;;;;;;;;;;;;;;;;;5118327;28;19981;-24
2022/05/11 03:55:58;;;;;;;;;;;;;;;;;;5118315;28;19908;-24
2022/05/11 03:58:24;;;;;;;;;;;;;;;;;;5118079;28;19924;-24
2022/05/11 04:00:50;;;;;;;;;;;;;;;;;;5100057;28;19918;-25
2022/05/11 04:03:16;;;;;;;;;;;;;;;;;;5117724;28;19920;-25
2022/05/11 04:05:42;;;;;;;;;;;;;;;;;;5117973;28;20237;-26
2022/05/11 04:08:08;;;;;;;;;;;;;;;;;;5118351;28;19908;-26
2022/05/11 04:10:34;;;;;;;;;;;;;;;;;;5117916;28;19954;-26
2022/05/11 04:13:00;;;;;;;;;;;;;;;;;;5117540;28;20019;-26
2022/05/11 04:15:26;;;;;;;;;;;;;;;;;;5117817;28;19942;-26
2022/05/11 04:20:43;;;;;;;;;;;;;;;;;;5117787;28;19972;-24
2022/05/11 04:23:09;;;;;;;;;;;;;;;;;;5117607;28;19990;-24
2022/05/11 04:25:35;;;;;;;;;;;;;;;;;;5101457;28;19965;-23
2022/05/11 04:28:03;;;;;;;;;;;;;;;;;;5101303;28;19923;-23
2022/05/11 04:30:31;;;;;;;;;;;;;;;;;;5119632;28;19907;-24
2022/05/11 04:32:59;;;;;;;;;;;;;;;;;;5117605;28;19911;-24
2022/05/11 04:52:26;;;;;;;;;;;;;;;;;;5575724;22;20031;-25
2022/05/11 04:54:53;;;;;;;;;;;;;;;;;;5101076;28;20053;-24
2022/05/11 04:57:21;;;;;;;;;;;;;;;;;;5118521;28;19947;-25
2022/05/11 04:59:49;;;;;;;;;;;;;;;;;;5118526;28;19908;-25
2022/05/11 05:02:17;;;;;;;;;;;;;;;;;;5114773;28;19918;-25
2022/05/11 05:04:44;;;;;;;;;;;;;;;;;;5080251;28;19912;-25
2022/05/11 05:07:12;;;;;;;;;;;;;;;;;;5098115;28;20273;-25
2022/05/11 05:09:39;;;;;;;;;;;;;;;;;;5080021;28;19912;-25
2022/05/11 05:23:30;;;;;;;;;;;;;;;;;;5101522;28;19981;-26
2022/05/11 05:25:56;;;;;;;;;;;;;;;;;;5095598;28;20004;-26
2022/05/11 05:34:03;;;;;;;;;;;;;;;;;;5098554;28;20040;-25
2022/05/11 05:36:31;;;;;;;;;;;;;;;;;;5079759;28;19939;-25
2022/05/11 05:41:52;;;;;;;;;;;;;;;;;;5098652;28;19923;-25
2022/05/11 05:44:19;;;;;;;;;;;;;;;;;;5080259;28;19920;-24
2022/05/11 05:46:46;;;;;;;;;;;;;;;;;;5097847;28;19912;-24
2022/05/11 05:49:14;;;;;;;;;;;;;;;;;;5079413;28;20285;-24
2022/05/11 05:51:43;;;;;;;;;;;;;;;;;;5079342;28;19912;-25
2022/05/11 05:54:10;;;;;;;;;;;;;;;;;;5065006;28;19921;-24
2022/05/11 05:56:37;;;;;;;;;;;;;;;;;;5059353;28;19995;-24
2022/05/11 05:59:09;;;;;;;;;;;;;;;;;;5077222;28;19921;-24
2022/05/11 06:01:38;;;;;;;;;;;;;;;;;;5059617;28;19923;-24
2022/05/11 06:04:06;;;;;;;;;;;;;;;;;;5060133;28;19916;-24
2022/05/11 06:06:40;;;;;;;;;;;;;;;;;;5059262;28;19908;-24
2022/05/11 06:09:09;;;;;;;;;;;;;;;;;;5077312;28;19995;-24
2022/05/11 06:11:54;;;;;;;;;;;;;;;;;;5059328;28;19918;-24
2022/05/11 06:14:30;;;;;;;;;;;;;;;;;;5058726;28;19912;-26
2022/05/11 06:17:02;;;;;;;;;;;;;;;;;;5056800;28;19991;-25
2022/05/11 06:19:31;;;;;;;;;;;;;;;;;;5073909;28;20547;-25
2022/05/11 06:21:58;;;;;;;;;;;;;;;;;;5073849;28;19912;-26
2022/05/11 06:27:16;;;;;;;;;;;;;;;;;;5073724;28;19955;-25
2022/05/11 06:30:03;;;;;;;;;;;;;;;;;;5055970;28;20040;-25
2022/05/11 06:32:30;;;;;;;;;;;;;;;;;;5055293;28;19908;-25
2022/05/11 06:34:57;;;;;;;;;;;;;;;;;;5073866;28;19999;-25
2022/05/11 06:37:23;;;;;;;;;;;;;;;;;;5076196;28;19974;-25
2022/05/11 06:39:58;;;;;;;;;;;;;;;;;;5058861;28;19917;-24
2022/05/11 06:42:30;;;;;;;;;;;;;;;;;;5059301;28;20209;-24
2022/05/11 06:47:50;;;;;;;;;;;;;;;;;;5077278;28;19977;-24
2022/05/11 06:50:24;;;;;;;;;;;;;;;;;;5077004;28;20222;-24
2022/05/11 07:01:16;;;;;;;;;;;;;;;;;;5097551;28;19969;-25
2022/05/11 07:03:46;;;;;;;;;;;;;;;;;;5097363;28;19909;-24
2022/05/11 07:06:21;;;;;;;;;;;;;;;;;;5097910;28;19927;-24
2022/05/11 07:08:51;;;;;;;;;;;;;;;;;;5097065;28;19944;-24
2022/05/11 07:16:55;;;;;;;;;;;;;;;;;;5097325;28;19923;-24
2022/05/11 07:19:26;;;;;;;;;;;;;;;;;;5096183;28;19916;-24
2022/05/11 07:21:55;;;;;;;;;;;;;;;;;;5096212;28;19912;-24
2022/05/11 07:24:28;;;;;;;;;;;;;;;;;;5096934;28;20057;-24
2022/05/11 07:27:21;;;;;;;;;;;;;;;;;;5097510;28;19919;-24
2022/05/11 07:33:01;;;;;;;;;;;;;;;;;;5095016;28;19931;-24
2022/05/11 07:35:29;;;;;;;;;;;;;;;;;;5095878;28;19912;-24
2022/05/11 07:38:03;;;;;;;;;;;;;;;;;;5097572;28;19912;-25
2022/05/11 07:54:40;;;;;;;;;;;;;;;;;;4548599;26;19924;-22
2022/05/11 07:59:56;;;;;;;;;;;;;;;;;;5117366;28;19918;-22
2022/05/11 08:02:27;;;;;;;;;;;;;;;;;;5100665;28;19912;-24
2022/05/11 08:04:57;;;;;;;;;;;;;;;;;;5115345;28;19919;-23
2022/05/11 08:07:36;;;;;;;;;;;;;;;;;;5117586;28;19908;-22
2022/05/11 08:10:04;;;;;;;;;;;;;;;;;;5120603;28;20256;-22
2022/05/11 08:12:35;;;;;;;;;;;;;;;;;;5120510;28;20289;-23
2022/05/11 08:15:04;;;;;;;;;;;;;;;;;;5120791;28;19912;-23
2022/05/11 08:20:23;;;;;;;;;;;;;;;;;;5121825;28;20005;-23
2022/05/11 08:22:53;;;;;;;;;;;;;;;;;;5121807;28;20360;-23
2022/05/11 08:28:15;;;;;;;;;;;;;;;;;;5121278;28;19923;-23
2022/05/11 08:33:42;;;;;;;;;;;;;;;;;;5120735;28;19933;-24
2022/05/11 08:39:00;;;;;;;;;;;;;;;;;;5120551;28;19931;-23
2022/05/11 08:41:28;;;;;;;;;;;;;;;;;;5118904;28;19923;-23
2022/05/11 08:44:01;;;;;;;;;;;;;;;;;;5117787;28;20024;-23
2022/05/11 08:46:32;;;;;;;;;;;;;;;;;;5119261;28;19972;-23
2022/05/11 08:49:00;;;;;;;;;;;;;;;;;;5116737;28;20345;-23
2022/05/11 08:51:32;;;;;;;;;;;;;;;;;;5118997;28;19931;-22
2022/05/11 08:53:59;;;;;;;;;;;;;;;;;;5118431;28;19916;-23
2022/05/11 08:56:34;;;;;;;;;;;;;;;;;;5118614;28;19919;-22
2022/05/11 08:59:06;;;;;;;;;;;;;;;;;;5118074;28;19915;-22
2022/05/11 09:01:36;;;;;;;;;;;;;;;;;;5118352;28;19958;-23
2022/05/11 09:04:04;;;;;;;;;;;;;;;;;;5118612;28;19912;-23
2022/05/11 09:06:32;;;;;;;;;;;;;;;;;;5118093;28;19912;-23
2022/05/11 09:09:02;;;;;;;;;;;;;;;;;;5118257;27;19976;-23
2022/05/11 09:11:30;;;;;;;;;;;;;;;;;;5117877;28;19919;-23
2022/05/11 09:13:58;;;;;;;;;;;;;;;;;;5118195;28;19994;-23
2022/05/11 09:16:29;;;;;;;;;;;;;;;;;;5117808;28;19912;-23
2022/05/11 09:18:57;;;;;;;;;;;;;;;;;;5116384;28;19912;-22
2022/05/11 09:21:25;;;;;;;;;;;;;;;;;;5118510;28;19954;-22
2022/05/11 09:23:58;;;;;;;;;;;;;;;;;;5118174;28;19911;-23
2022/05/11 09:26:27;;;;;;;;;;;;;;;;;;5118551;28;19958;-22
2022/05/11 09:28:57;;;;;;;;;;;;;;;;;;5118194;28;19908;-23
2022/05/11 09:31:31;;;;;;;;;;;;;;;;;;5119459;28;19912;-23
2022/05/11 09:36:51;;;;;;;;;;;;;;;;;;5119997;28;19958;-23
2022/05/11 09:39:19;;;;;;;;;;;;;;;;;;5119182;28;19962;-23
2022/05/11 09:41:49;;;;;;;;;;;;;;;;;;5118729;28;19999;-24
2022/05/11 09:44:19;;;;;;;;;;;;;;;;;;5118502;28;19919;-24
2022/05/11 09:46:47;;;;;;;;;;;;;;;;;;5119025;28;20346;-23
2022/05/11 09:49:15;;;;;;;;;;;;;;;;;;5118511;28;20398;-23
2022/05/11 09:51:44;;;;;;;;;;;;;;;;;;5118757;28;19915;-23
2022/05/11 09:54:11;;;;;;;;;;;;;;;;;;5116816;28;20384;-24
2022/05/11 09:56:44;;;;;;;;;;;;;;;;;;5118798;28;19920;-23
2022/05/11 09:59:12;;;;;;;;;;;;;;;;;;5117705;28;19926;-23
2022/05/11 10:01:53;;;;;;;;;;;;;;;;;;5117285;28;20290;-22
2022/05/11 10:04:25;;;;;;;;;;;;;;;;;;5117623;28;20357;-22
2022/05/11 10:06:55;;;;;;;;;;;;;;;;;;5118596;28;19908;-23
2022/05/11 10:09:24;;;;;;;;;;;;;;;;;;5118125;28;20025;-23
2022/05/11 10:11:54;;;;;;;;;;;;;;;;;;5118502;28;19908;-22
2022/05/11 10:22:38;;;;;;;;;;;;;;;;;;5117703;28;19946;-23
2022/05/11 10:25:11;;;;;;;;;;;;;;;;;;5118759;28;20275;-22
2022/05/11 10:27:39;;;;;;;;;;;;;;;;;;5117501;28;19912;-22
2022/05/11 10:33:04;;;;;;;;;;;;;;;;;;5117656;28;19926;-22
2022/05/11 10:35:34;;;;;;;;;;;;;;;;;;5117709;28;20302;-22
2022/05/11 10:38:21;;;;;;;;;;;;;;;;;;5117667;28;20312;-22
2022/05/11 10:40:56;;;;;;;;;;;;;;;;;;5118002;28;19984;-23
2022/05/11 10:43:31;;;;;;;;;;;;;;;;;;5116606;28;19920;-23
2022/05/11 10:46:07;;;;;;;;;;;;;;;;;;5118397;28;19911;-22
2022/05/11 10:48:35;;;;;;;;;;;;;;;;;;5117077;28;20264;-23
2022/05/11 10:51:03;;;;;;;;;;;;;;;;;;5118193;28;19999;-22
2022/05/11 10:53:46;;;;;;;;;;;;;;;;;;5118466;28;19911;-22
2022/05/11 10:56:15;;;;;;;;;;;;;;;;;;5115683;28;20330;-22
2022/05/11 10:58:41;;;;;;;;;;;;;;;;;;5115046;28;19962;-23
2022/05/11 11:01:08;;;;;;;;;;;;;;;;;;5113711;28;19953;-23
2022/05/11 11:03:34;;;;;;;;;;;;;;;;;;5112704;28;20247;-24
2022/05/11 11:08:45;;;;;;;;;;;;;;;;;;5114069;28;20435;-23
2022/05/11 11:11:11;;;;;;;;;;;;;;;;;;5113961;28;19938;-23
2022/05/11 11:13:37;;;;;;;;;;;;;;;;;;5113545;28;19912;-23
2022/05/11 11:16:04;;;;;;;;;;;;;;;;;;5113712;28;20007;-23
2022/05/11 11:18:31;;;;;;;;;;;;;;;;;;5113755;28;19923;-24
2022/05/11 11:21:08;;;;;;;;;;;;;;;;;;5114047;28;19943;-24
2022/05/11 11:23:41;;;;;;;;;;;;;;;;;;5113590;28;20010;-23
2022/05/11 11:26:09;;;;;;;;;;;;;;;;;;5118015;28;19959;-24
2022/05/11 11:28:36;;;;;;;;;;;;;;;;;;5116619;28;19912;-21
2022/05/11 11:31:04;;;;;;;;;;;;;;;;;;5118344;28;19908;-24
2022/05/11 11:33:47;;;;;;;;;;;;;;;;;;5117160;28;20028;-22
2022/05/11 11:36:26;;;;;;;;;;;;;;;;;;5116782;28;20283;-22
2022/05/11 11:38:58;;;;;;;;;;;;;;;;;;5118417;28;19966;-23
2022/05/11 11:41:28;;;;;;;;;;;;;;;;;;5117637;28;19926;-22
2022/05/11 11:44:12;;;;;;;;;;;;;;;;;;5120002;28;20370;-23
2022/05/11 11:46:41;;;;;;;;;;;;;;;;;;5119171;28;19957;-23
2022/05/11 11:49:15;;;;;;;;;;;;;;;;;;5121352;28;20341;-23
2022/05/11 11:51:45;;;;;;;;;;;;;;;;;;5121516;27;20266;-23
2022/05/11 11:54:17;;;;;;;;;;;;;;;;;;5119255;28;19908;-23
2022/05/11 11:56:46;;;;;;;;;;;;;;;;;;5121477;28;19920;-23
2022/05/11 11:59:13;;;;;;;;;;;;;;;;;;5121403;28;19937;-23
2022/05/11 12:01:40;;;;;;;;;;;;;;;;;;5121131;28;19918;-23
2022/05/11 12:04:20;;;;;;;;;;;;;;;;;;5121497;28;19920;-22
2022/05/11 12:15:15;;;;;;;;;;;;;;;;;;5120959;28;19927;-22
2022/05/11 12:20:34;;;;;;;;;;;;;;;;;;5120918;28;19934;-22
2022/05/11 12:23:03;;;;;;;;;;;;;;;;;;5120902;28;19923;-21
2022/05/11 12:25:40;;;;;;;;;;;;;;;;;;5120900;28;19908;-22
2022/05/11 12:28:08;;;;;;;;;;;;;;;;;;5121133;28;19919;-23
2022/05/11 12:30:35;;;;;;;;;;;;;;;;;;5120234;28;19972;-23
2022/05/11 12:33:12;;;;;;;;;;;;;;;;;;5119806;27;19912;-22
2022/05/11 12:35:45;;;;;;;;;;;;;;;;;;5120145;28;19911;-22
2022/05/11 12:38:15;;;;;;;;;;;;;;;;;;5118956;28;19951;-23
2022/05/11 12:40:54;;;;;;;;;;;;;;;;;;5120219;28;19912;-23
2022/05/11 12:46:12;;;;;;;;;;;;;;;;;;5120992;28;19958;-23
2022/05/11 12:48:42;;;;;;;;;;;;;;;;;;5121696;28;19923;-23
2022/05/11 12:54:08;;;;;;;;;;;;;;;;;;5118585;28;20294;-22
2022/05/11 12:56:50;;;;;;;;;;;;;;;;;;5122037;28;19931;-24
2022/05/11 13:16:17;;;;;;;;;;;;;;;;;;5098308;28;19923;-21
2022/05/11 13:21:53;;;;;;;;;;;;;;;;;;5100466;28;19962;-22
2022/05/11 13:35:48;;;;;;;;;;;;;;;;;;4726388;27;11624342;-28
2022/05/11 13:38:16;;;;;;;;;;;;;;;;;;5133861;28;19915;-27
2022/05/11 13:40:44;;;;;;;;;;;;;;;;;;5115421;28;19924;-31
2022/05/11 13:57:34;;;;;;;;;;;;;;;;;;5513575;22;20316;-24
2022/05/11 14:00:02;;;;;;;;;;;;;;;;;;5056042;28;19961;-24
2022/05/11 14:02:36;;;;;;;;;;;;;;;;;;5038470;28;19920;-24
2022/05/11 14:05:04;;;;;;;;;;;;;;;;;;5054202;28;20246;-24
2022/05/11 14:07:33;;;;;;;;;;;;;;;;;;5053919;28;19928;-24
2022/05/11 14:10:00;;;;;;;;;;;;;;;;;;5054871;28;19976;-24
2022/05/11 14:12:28;;;;;;;;;;;;;;;;;;5037456;28;19913;-24
2022/05/11 14:14:56;;;;;;;;;;;;;;;;;;5037968;28;20007;-24
2022/05/11 14:17:24;;;;;;;;;;;;;;;;;;5037666;28;19913;-24
2022/05/11 14:19:56;;;;;;;;;;;;;;;;;;5037991;28;19920;-24
2022/05/11 14:22:26;;;;;;;;;;;;;;;;;;5036515;28;19960;-23
2022/05/11 14:24:52;;;;;;;;;;;;;;;;;;5037191;28;20232;-25
2022/05/11 14:27:32;;;;;;;;;;;;;;;;;;5033159;28;19913;-25
2022/05/11 14:29:59;;;;;;;;;;;;;;;;;;5036507;28;19920;-24
2022/05/11 14:32:28;;;;;;;;;;;;;;;;;;5053503;28;20216;-24
2022/05/11 14:34:56;;;;;;;;;;;;;;;;;;5036590;28;19928;-24
2022/05/11 14:37:25;;;;;;;;;;;;;;;;;;5054255;28;19967;-25
2022/05/11 14:39:53;;;;;;;;;;;;;;;;;;5035123;28;19909;-24
2022/05/11 14:42:20;;;;;;;;;;;;;;;;;;5035586;28;19954;-24
2022/05/11 14:44:51;;;;;;;;;;;;;;;;;;5036120;28;20027;-24
2022/05/11 14:47:18;;;;;;;;;;;;;;;;;;5021778;28;19952;-24
2022/05/11 14:49:44;;;;;;;;;;;;;;;;;;5037856;28;19924;-25
2022/05/11 14:52:10;;;;;;;;;;;;;;;;;;5036665;28;19920;-25
2022/05/11 14:54:37;;;;;;;;;;;;;;;;;;5036773;28;19967;-25
2022/05/11 15:02:34;;;;;;;;;;;;;;;;;;5036706;28;20267;-25
2022/05/11 15:05:00;;;;;;;;;;;;;;;;;;5036565;28;19919;-26
2022/05/11 15:07:26;;;;;;;;;;;;;;;;;;5036295;28;20335;-25
2022/05/11 15:09:53;;;;;;;;;;;;;;;;;;5036526;28;20265;-25
2022/05/11 15:15:04;;;;;;;;;;;;;;;;;;5035879;28;19975;-26
2022/05/11 15:17:33;;;;;;;;;;;;;;;;;;5036705;28;20266;-25
2022/05/11 15:20:07;;;;;;;;;;;;;;;;;;5019640;28;19909;-25
2022/05/11 15:22:35;;;;;;;;;;;;;;;;;;5037678;28;20332;-25
2022/05/11 15:25:05;;;;;;;;;;;;;;;;;;5019558;28;19909;-25
2022/05/11 15:27:37;;;;;;;;;;;;;;;;;;5037573;28;19984;-25
2022/05/11 15:30:11;;;;;;;;;;;;;;;;;;5037568;28;19967;-25
2022/05/11 15:32:38;;;;;;;;;;;;;;;;;;5036117;28;20271;-25
2022/05/11 15:35:06;;;;;;;;;;;;;;;;;;5036570;28;19913;-25
2022/05/11 15:37:32;;;;;;;;;;;;;;;;;;5018865;28;20000;-26
2022/05/11 15:39:58;;;;;;;;;;;;;;;;;;5018312;28;19932;-26
2022/05/11 15:42:25;;;;;;;;;;;;;;;;;;5036023;28;19920;-26
2022/05/11 15:47:42;;;;;;;;;;;;;;;;;;5036197;28;19939;-27
2022/05/11 15:53:00;;;;;;;;;;;;;;;;;;5042268;28;19924;-25
2022/05/11 15:55:26;;;;;;;;;;;;;;;;;;5036029;28;19917;-26
2022/05/11 15:57:52;;;;;;;;;;;;;;;;;;5034719;28;19913;-25
2022/05/11 16:00:18;;;;;;;;;;;;;;;;;;5036053;28;19916;-26
2022/05/11 16:02:44;;;;;;;;;;;;;;;;;;5035884;28;19917;-26
2022/05/11 16:05:11;;;;;;;;;;;;;;;;;;5037490;28;19913;-25
2022/05/11 16:07:38;;;;;;;;;;;;;;;;;;5037768;28;20291;-25
2022/05/11 16:10:05;;;;;;;;;;;;;;;;;;5035454;28;19928;-26
2022/05/11 16:12:33;;;;;;;;;;;;;;;;;;5037032;28;19913;-24
2022/05/11 16:15:00;;;;;;;;;;;;;;;;;;5037527;28;19918;-25
2022/05/11 16:20:12;;;;;;;;;;;;;;;;;;5037736;28;19975;-25
2022/05/11 16:22:40;;;;;;;;;;;;;;;;;;5037413;28;19917;-25
2022/05/11 16:25:07;;;;;;;;;;;;;;;;;;5020100;28;20256;-24
2022/05/11 16:27:35;;;;;;;;;;;;;;;;;;5020195;28;20313;-23
2022/05/11 16:30:01;;;;;;;;;;;;;;;;;;5037356;28;20336;-23
2022/05/11 16:32:28;;;;;;;;;;;;;;;;;;5020239;28;19920;-23
2022/05/11 16:34:56;;;;;;;;;;;;;;;;;;5019843;28;20211;-23
2022/05/11 16:37:23;;;;;;;;;;;;;;;;;;5037622;28;20316;-23
2022/05/11 16:39:50;;;;;;;;;;;;;;;;;;5037962;28;19909;-23
2022/05/11 16:42:24;;;;;;;;;;;;;;;;;;5037481;28;20320;-23
2022/05/11 16:44:51;;;;;;;;;;;;;;;;;;5038000;28;19925;-23
2022/05/11 16:47:18;;;;;;;;;;;;;;;;;;5037432;28;19917;-25
2022/05/11 16:49:50;;;;;;;;;;;;;;;;;;5037298;28;20007;-24
2022/05/11 16:52:17;;;;;;;;;;;;;;;;;;5036936;28;19919;-24
2022/05/11 16:54:44;;;;;;;;;;;;;;;;;;5037114;28;19917;-25
2022/05/11 16:57:11;;;;;;;;;;;;;;;;;;5019214;28;19975;-25
2022/05/11 16:59:38;;;;;;;;;;;;;;;;;;5036967;28;19917;-24
2022/05/11 17:02:05;;;;;;;;;;;;;;;;;;5019162;28;19956;-24
2022/05/11 17:04:32;;;;;;;;;;;;;;;;;;5036730;28;20348;-24
2022/05/11 17:06:59;;;;;;;;;;;;;;;;;;5036990;28;19913;-24
2022/05/11 17:09:26;;;;;;;;;;;;;;;;;;5036880;28;20000;-23
2022/05/11 17:11:52;;;;;;;;;;;;;;;;;;5017106;28;20325;-25
2022/05/11 17:14:18;;;;;;;;;;;;;;;;;;5033987;28;19924;-25
2022/05/11 17:16:46;;;;;;;;;;;;;;;;;;5036556;28;19924;-24
2022/05/11 17:19:12;;;;;;;;;;;;;;;;;;5019256;28;19913;-24
2022/05/11 17:21:39;;;;;;;;;;;;;;;;;;5037118;28;19967;-24
2022/05/11 17:24:06;;;;;;;;;;;;;;;;;;5036967;28;19931;-24
2022/05/11 17:26:34;;;;;;;;;;;;;;;;;;5019254;28;19909;-24
2022/05/11 17:29:11;;;;;;;;;;;;;;;;;;5037813;28;20284;-23
2022/05/11 17:34:24;;;;;;;;;;;;;;;;;;5037285;28;20083;-24
2022/05/11 17:36:51;;;;;;;;;;;;;;;;;;5037192;28;20243;-24
2022/05/11 17:39:18;;;;;;;;;;;;;;;;;;5036785;28;19920;-25
2022/05/11 17:41:44;;;;;;;;;;;;;;;;;;5033639;28;19917;-26
2022/05/11 17:44:10;;;;;;;;;;;;;;;;;;5015867;28;19973;-26
2022/05/11 17:46:36;;;;;;;;;;;;;;;;;;5015877;28;20347;-26
2022/05/11 17:49:02;;;;;;;;;;;;;;;;;;5033449;28;19909;-26
2022/05/11 17:51:28;;;;;;;;;;;;;;;;;;5033262;28;19913;-26
2022/05/11 17:53:54;;;;;;;;;;;;;;;;;;5033516;28;19916;-26
2022/05/11 17:56:20;;;;;;;;;;;;;;;;;;5015734;28;20023;-26
2022/05/11 17:58:46;;;;;;;;;;;;;;;;;;5032933;28;19917;-26
2022/05/11 18:01:12;;;;;;;;;;;;;;;;;;5033057;28;20007;-26
2022/05/11 18:03:38;;;;;;;;;;;;;;;;;;5033060;28;20059;-26
2022/05/11 18:06:04;;;;;;;;;;;;;;;;;;5033058;28;20332;-26
2022/05/11 18:08:32;;;;;;;;;;;;;;;;;;5032969;28;20316;-26
2022/05/11 18:10:58;;;;;;;;;;;;;;;;;;5033180;28;19940;-26
2022/05/11 18:13:24;;;;;;;;;;;;;;;;;;5033540;28;20004;-26
2022/05/11 18:15:50;;;;;;;;;;;;;;;;;;5015446;28;20005;-27
2022/05/11 18:18:16;;;;;;;;;;;;;;;;;;5032889;28;19913;-26
2022/05/11 18:20:42;;;;;;;;;;;;;;;;;;5033667;28;20350;-26
2022/05/11 18:23:08;;;;;;;;;;;;;;;;;;5019303;28;19999;-26
2022/05/11 18:25:34;;;;;;;;;;;;;;;;;;5037223;28;19944;-26
2022/05/11 18:28:00;;;;;;;;;;;;;;;;;;5019340;28;19913;-26
2022/05/11 18:30:26;;;;;;;;;;;;;;;;;;5037178;28;19910;-26
2022/05/11 18:32:52;;;;;;;;;;;;;;;;;;5037289;28;19913;-26
2022/05/11 18:35:19;;;;;;;;;;;;;;;;;;5037120;28;20182;-26
2022/05/11 18:37:45;;;;;;;;;;;;;;;;;;5036943;28;19971;-26
2022/05/11 18:40:11;;;;;;;;;;;;;;;;;;5037012;28;19924;-26
2022/05/11 18:42:39;;;;;;;;;;;;;;;;;;5037274;28;20251;-26
2022/05/11 18:45:05;;;;;;;;;;;;;;;;;;5036944;28;19917;-26
2022/05/11 18:47:31;;;;;;;;;;;;;;;;;;5037090;28;19935;-26
2022/05/11 18:49:57;;;;;;;;;;;;;;;;;;5036937;28;19909;-25
2022/05/11 18:52:23;;;;;;;;;;;;;;;;;;5036814;28;19913;-26
2022/05/11 18:54:49;;;;;;;;;;;;;;;;;;5036557;28;19917;-26
2022/05/11 18:57:15;;;;;;;;;;;;;;;;;;5036821;28;19910;-26
2022/05/11 18:59:43;;;;;;;;;;;;;;;;;;5037127;28;20221;-24
2022/05/11 19:02:09;;;;;;;;;;;;;;;;;;5037069;28;19928;-26
2022/05/11 19:04:35;;;;;;;;;;;;;;;;;;5036773;28;19971;-26
2022/05/11 19:07:03;;;;;;;;;;;;;;;;;;5037272;28;20006;-24
2022/05/11 19:09:30;;;;;;;;;;;;;;;;;;5039393;28;19913;-24
2022/05/11 19:11:57;;;;;;;;;;;;;;;;;;5038513;28;19941;-24
2022/05/11 19:14:24;;;;;;;;;;;;;;;;;;5039016;28;19964;-25
2022/05/11 19:16:53;;;;;;;;;;;;;;;;;;5021397;28;19939;-24
2022/05/11 19:19:20;;;;;;;;;;;;;;;;;;5038702;28;19913;-25
2022/05/11 19:21:47;;;;;;;;;;;;;;;;;;5021322;28;20008;-24
2022/05/11 19:24:14;;;;;;;;;;;;;;;;;;5021075;28;20000;-24
2022/05/11 19:26:41;;;;;;;;;;;;;;;;;;5022020;28;20087;-25
2022/05/11 19:29:08;;;;;;;;;;;;;;;;;;5020986;28;19956;-24
2022/05/11 19:31:35;;;;;;;;;;;;;;;;;;5038344;28;20027;-25
2022/05/11 19:34:02;;;;;;;;;;;;;;;;;;5021512;28;19913;-24
2022/05/11 19:36:29;;;;;;;;;;;;;;;;;;5038296;28;19913;-25
2022/05/11 19:41:41;;;;;;;;;;;;;;;;;;5039666;28;19975;-24
2022/05/11 19:44:08;;;;;;;;;;;;;;;;;;5038188;28;19913;-24
2022/05/11 19:46:35;;;;;;;;;;;;;;;;;;5020773;28;19913;-25
2022/05/11 19:49:02;;;;;;;;;;;;;;;;;;5038213;28;19909;-24
2022/05/11 19:51:31;;;;;;;;;;;;;;;;;;5020529;28;20264;-24
2022/05/11 19:53:59;;;;;;;;;;;;;;;;;;5037513;28;19917;-24
2022/05/11 19:56:26;;;;;;;;;;;;;;;;;;5037440;28;19913;-25
2022/05/11 19:58:53;;;;;;;;;;;;;;;;;;5015773;28;20194;-25
2022/05/11 20:01:20;;;;;;;;;;;;;;;;;;5017385;28;20375;-25
2022/05/11 20:03:48;;;;;;;;;;;;;;;;;;5017480;28;19988;-24
2022/05/11 20:06:17;;;;;;;;;;;;;;;;;;5016042;28;20329;-24
2022/05/11 20:08:44;;;;;;;;;;;;;;;;;;5015905;28;20004;-24
2022/05/11 20:11:11;;;;;;;;;;;;;;;;;;5017073;28;19910;-24